createdAt,value
2019-02-02T00:00:14.065Z,98587.46
2019-02-02T00:02:40.050Z,98588.73
2019-02-02T00:05:06.052Z,98583.01
2019-02-02T00:07:32.056Z,98577.24
2019-02-02T00:09:58.176Z,98577.63
2019-02-02T00:12:24.168Z,98572.06
2019-02-02T00:14:50.181Z,98574.88
2019-02-02T00:17:16.276Z,98574.74
2019-02-02T00:19:42.277Z,98579.11
2019-02-02T00:22:08.283Z,98581.31
2019-02-02T00:24:34.278Z,98583.27
2019-02-02T00:27:00.296Z,98586.27
2019-02-02T00:29:26.271Z,98587.38
2019-02-02T00:31:52.261Z,98587.12
2019-02-02T00:34:18.254Z,98593.19
2019-02-02T00:36:44.237Z,98594.45
2019-02-02T00:39:10.228Z,98592.97
2019-02-02T00:41:36.220Z,98593.95
2019-02-02T00:44:02.251Z,98591.53
2019-02-02T00:46:28.222Z,98593.70
2019-02-02T00:48:54.198Z,98591.24
2019-02-02T00:51:20.198Z,98587.00
2019-02-02T00:53:46.276Z,98581.23
2019-02-02T00:56:12.256Z,98585.00
2019-02-02T00:58:38.269Z,98581.06
2019-02-02T01:01:04.252Z,98582.92
2019-02-02T01:03:32.346Z,98585.55
2019-02-02T01:05:58.331Z,98581.78
2019-02-02T01:08:24.324Z,98581.98
2019-02-02T01:10:50.315Z,98589.20
2019-02-02T01:13:16.328Z,98589.88
2019-02-02T01:15:42.358Z,98585.42
2019-02-02T01:18:08.362Z,98592.94
2019-02-02T01:20:34.426Z,98598.87
2019-02-02T01:23:00.458Z,98598.56
2019-02-02T01:25:26.477Z,98598.73
2019-02-02T01:27:52.480Z,98597.42
2019-02-02T01:30:18.482Z,98601.50
2019-02-02T01:32:44.485Z,98602.69
2019-02-02T01:35:10.613Z,98603.56
2019-02-02T01:37:36.629Z,98603.56
2019-02-02T01:40:02.651Z,98603.23
2019-02-02T01:42:28.654Z,98602.62
2019-02-02T01:44:54.645Z,98609.80
2019-02-02T01:47:20.631Z,98607.51
2019-02-02T01:49:46.607Z,98609.00
2019-02-02T01:52:12.629Z,98606.57
2019-02-02T01:54:38.692Z,98606.58
2019-02-02T01:57:04.707Z,98609.84
2019-02-02T01:59:30.809Z,98612.47
2019-02-02T02:01:56.800Z,98614.59
2019-02-02T02:04:22.863Z,98615.61
2019-02-02T02:06:48.848Z,98612.52
2019-02-02T02:09:14.830Z,98616.41
2019-02-02T02:11:40.882Z,98620.53
2019-02-02T02:14:06.914Z,98625.28
2019-02-02T02:16:33.012Z,98614.33
2019-02-02T02:18:59.026Z,98620.91
2019-02-02T02:21:25.017Z,98626.80
2019-02-02T02:23:51.087Z,98621.41
2019-02-02T02:26:17.127Z,98623.03
2019-02-02T02:28:43.115Z,98633.53
2019-02-02T02:31:09.099Z,98626.02
2019-02-02T02:33:35.073Z,98623.40
2019-02-02T02:36:01.071Z,98631.41
2019-02-02T02:38:27.057Z,98627.34
2019-02-02T02:40:53.131Z,98627.08
2019-02-02T02:43:19.168Z,98631.95
2019-02-02T02:45:45.167Z,98637.58
2019-02-02T02:48:11.166Z,98622.45
2019-02-02T02:50:37.241Z,98631.66
2019-02-02T02:53:03.342Z,98635.09
2019-02-02T02:55:29.345Z,98634.96
2019-02-02T02:57:55.401Z,98638.09
2019-02-02T03:00:21.398Z,98638.56
2019-02-02T03:02:47.433Z,98639.84
2019-02-02T03:05:13.489Z,98638.90
2019-02-02T03:07:39.519Z,98647.45
2019-02-02T03:10:05.535Z,98650.72
2019-02-02T03:12:31.525Z,98651.70
2019-02-02T03:14:57.509Z,98662.04
2019-02-02T03:17:23.491Z,98654.33
2019-02-02T03:19:49.459Z,98659.78
2019-02-02T03:22:15.434Z,98664.70
2019-02-02T03:24:41.425Z,98664.91
2019-02-02T03:27:07.401Z,98663.09
2019-02-02T03:29:33.381Z,98663.39
2019-02-02T03:31:59.372Z,98660.77
2019-02-02T03:34:25.381Z,98662.01
2019-02-02T03:36:51.348Z,98660.63
2019-02-02T03:39:17.397Z,98661.81
2019-02-02T03:41:43.386Z,98663.62
2019-02-02T03:44:09.399Z,98663.93
2019-02-02T03:46:35.388Z,98667.73
2019-02-02T03:49:01.356Z,98663.99
2019-02-02T03:51:27.446Z,98667.27
2019-02-02T03:53:53.430Z,98672.52
2019-02-02T03:56:19.406Z,98666.63
2019-02-02T03:58:45.393Z,98673.83
2019-02-02T04:01:11.410Z,98675.01
2019-02-02T04:03:37.389Z,98680.27
2019-02-02T04:06:03.379Z,98679.55
2019-02-02T04:08:29.427Z,98681.07
2019-02-02T04:10:55.416Z,98684.00
2019-02-02T04:13:21.415Z,98684.51
2019-02-02T04:15:47.394Z,98690.30
2019-02-02T04:18:13.433Z,98679.42
2019-02-02T04:20:39.422Z,98679.15
2019-02-02T04:23:05.520Z,98682.41
2019-02-02T04:25:31.609Z,98676.48
2019-02-02T04:27:57.593Z,98675.85
2019-02-02T04:30:23.666Z,98685.91
2019-02-02T04:32:49.683Z,98689.02
2019-02-02T04:35:15.676Z,98684.41
2019-02-02T04:37:41.716Z,98680.33
2019-02-02T04:40:07.709Z,98681.33
2019-02-02T04:42:33.709Z,98685.27
2019-02-02T04:44:59.695Z,98681.84
2019-02-02T04:47:25.679Z,98687.40
2019-02-02T04:49:51.667Z,98686.22
2019-02-02T04:52:17.648Z,98686.39
2019-02-02T04:54:43.648Z,98692.48
2019-02-02T04:57:09.733Z,98694.47
2019-02-02T04:59:35.742Z,98689.99
2019-02-02T05:02:01.758Z,98697.78
2019-02-02T05:04:27.905Z,98693.30
2019-02-02T05:06:53.880Z,98704.22
2019-02-02T05:09:19.878Z,98707.45
2019-02-02T05:11:45.853Z,98708.73
2019-02-02T05:14:11.840Z,98704.11
2019-02-02T05:16:37.840Z,98702.93
2019-02-02T05:19:03.817Z,98703.27
2019-02-02T05:21:29.820Z,98708.66
2019-02-02T05:23:55.817Z,98712.23
2019-02-02T05:26:21.844Z,98712.02
2019-02-02T05:28:47.825Z,98717.11
2019-02-02T05:31:13.817Z,98719.87
2019-02-02T05:33:39.789Z,98720.81
2019-02-02T05:36:05.780Z,98720.34
2019-02-02T05:38:31.768Z,98719.84
2019-02-02T05:40:57.755Z,98720.48
2019-02-02T05:43:23.832Z,98719.77
2019-02-02T05:45:49.830Z,98722.40
2019-02-02T05:48:15.805Z,98717.47
2019-02-02T05:50:41.781Z,98720.74
2019-02-02T05:53:07.760Z,98713.16
2019-02-02T05:55:33.795Z,98713.97
2019-02-02T05:57:59.778Z,98716.12
2019-02-02T06:00:25.764Z,98717.44
2019-02-02T06:02:51.747Z,98723.64
2019-02-02T06:05:17.746Z,98728.08
2019-02-02T06:07:43.744Z,98730.20
2019-02-02T06:10:09.717Z,98727.38
2019-02-02T06:12:35.785Z,98736.23
2019-02-02T06:15:01.788Z,98730.14
2019-02-02T06:17:27.775Z,98734.92
2019-02-02T06:19:53.781Z,98736.23
2019-02-02T06:22:19.755Z,98743.25
2019-02-02T06:24:45.738Z,98741.63
2019-02-02T06:27:11.778Z,98748.20
2019-02-02T06:29:37.879Z,98749.82
2019-02-02T06:32:11.582Z,98762.80
2019-02-02T06:34:31.575Z,98761.48
2019-02-02T06:36:57.627Z,98759.16
2019-02-02T06:39:23.605Z,98763.91
2019-02-02T06:41:49.625Z,98768.70
2019-02-02T06:44:15.590Z,98766.67
2019-02-02T06:46:43.799Z,98768.50
2019-02-02T06:49:09.400Z,98775.88
2019-02-02T06:51:35.479Z,98777.53
2019-02-02T06:54:01.479Z,98786.53
2019-02-02T06:56:27.457Z,98788.36
2019-02-02T06:58:53.434Z,98788.36
2019-02-02T07:01:19.432Z,98792.43
2019-02-02T07:03:45.452Z,98806.22
2019-02-02T07:06:11.434Z,98801.16
2019-02-02T07:08:37.448Z,98811.98
2019-02-02T07:11:03.471Z,98806.42
2019-02-02T07:13:29.448Z,98812.63
2019-02-02T07:15:55.515Z,98818.70
2019-02-02T07:18:21.497Z,98813.13
2019-02-02T07:20:47.470Z,98813.73
2019-02-02T07:23:13.509Z,98812.42
2019-02-02T07:25:39.519Z,98822.27
2019-02-02T07:28:05.499Z,98821.46
2019-02-02T07:30:31.466Z,98817.01
2019-02-02T07:32:57.462Z,98820.78
2019-02-02T07:35:23.513Z,98828.17
2019-02-02T07:37:49.634Z,98827.36
2019-02-02T07:40:15.616Z,98837.88
2019-02-02T07:42:41.690Z,98836.40
2019-02-02T07:45:07.697Z,98844.09
2019-02-02T07:47:33.775Z,98842.13
2019-02-02T07:49:59.789Z,98842.47
2019-02-02T07:52:25.795Z,98848.03
2019-02-02T07:54:52.019Z,98854.95
2019-02-02T07:57:17.997Z,98863.82
2019-02-02T07:59:43.978Z,98866.95
2019-02-02T08:02:09.971Z,98871.55
2019-02-02T08:04:35.966Z,98877.61
2019-02-02T08:07:01.972Z,98878.77
2019-02-02T08:09:27.961Z,98884.83
2019-02-02T08:11:53.966Z,98883.02
2019-02-02T08:14:19.941Z,98885.14
2019-02-02T08:16:45.921Z,98884.33
2019-02-02T08:19:11.896Z,98887.77
2019-02-02T08:21:37.893Z,98894.17
2019-02-02T08:24:03.917Z,98896.47
2019-02-02T08:26:29.922Z,98899.44
2019-02-02T08:28:55.909Z,98910.77
2019-02-02T08:31:21.913Z,98913.71
2019-02-02T08:33:47.884Z,98924.06
2019-02-02T08:36:13.872Z,98930.34
2019-02-02T08:38:39.852Z,98935.09
2019-02-02T08:41:06.844Z,98937.22
2019-02-02T08:43:32.856Z,98940.19
2019-02-02T08:45:58.876Z,98941.81
2019-02-02T08:48:24.856Z,98950.72
2019-02-02T08:50:50.859Z,98951.83
2019-02-02T08:53:16.857Z,98962.69
2019-02-02T08:55:42.919Z,98968.94
2019-02-02T08:58:09.101Z,98967.95
2019-02-02T09:00:35.119Z,98968.77
2019-02-02T09:03:01.116Z,98977.16
2019-02-02T09:05:27.080Z,98980.11
2019-02-02T09:07:53.087Z,98982.43
2019-02-02T09:10:19.164Z,98982.73
2019-02-02T09:12:45.146Z,98983.38
2019-02-02T09:15:11.129Z,98989.95
2019-02-02T09:17:37.190Z,98986.01
2019-02-02T09:20:03.182Z,98991.58
2019-02-02T09:22:29.177Z,98990.60
2019-02-02T09:24:55.282Z,98985.64
2019-02-02T09:27:21.282Z,98985.64
2019-02-02T09:29:47.871Z,98993.23
2019-02-02T09:32:14.062Z,98991.41
2019-02-02T09:34:40.116Z,98992.22
2019-02-02T09:37:06.134Z,98990.40
2019-02-02T09:39:32.128Z,98992.73
2019-02-02T09:41:58.195Z,98993.03
2019-02-02T09:44:24.223Z,98992.86
2019-02-02T09:46:50.195Z,98991.55
2019-02-02T09:49:16.207Z,98995.50
2019-02-02T09:51:42.280Z,98999.28
2019-02-02T09:54:09.204Z,98996.44
2019-02-02T09:56:35.335Z,98998.27
2019-02-02T09:59:01.435Z,99002.05
2019-02-02T10:01:28.198Z,99004.67
2019-02-02T10:03:54.257Z,99008.29
2019-02-02T10:06:20.391Z,99012.88
2019-02-02T10:08:46.380Z,99013.55
2019-02-02T10:11:12.377Z,99016.19
2019-02-02T10:13:38.350Z,99020.13
2019-02-02T10:16:04.364Z,99022.12
2019-02-02T10:18:30.347Z,99032.65
2019-02-02T10:21:03.737Z,99032.00
2019-02-02T10:23:24.027Z,99033.97
2019-02-02T10:25:50.104Z,99038.59
2019-02-02T10:28:16.095Z,99043.03
2019-02-02T10:30:42.091Z,99046.81
2019-02-02T10:33:08.103Z,99042.06
2019-02-02T10:35:34.085Z,99045.50
2019-02-02T10:38:00.111Z,99046.17
2019-02-02T10:40:26.261Z,99041.72
2019-02-02T10:42:52.281Z,99045.50
2019-02-02T10:45:18.272Z,99052.25
2019-02-02T10:47:44.354Z,99057.34
2019-02-02T10:50:10.355Z,99058.52
2019-02-02T10:52:36.378Z,99057.85
2019-02-02T10:55:02.401Z,99062.27
2019-02-02T10:57:28.398Z,99067.53
2019-02-02T10:59:54.486Z,99069.05
2019-02-02T11:02:20.468Z,99072.05
2019-02-02T11:04:46.510Z,99072.66
2019-02-02T11:07:12.664Z,99068.23
2019-02-02T11:09:38.728Z,99072.19
2019-02-02T11:12:04.767Z,99078.42
2019-02-02T11:14:31.132Z,99080.75
2019-02-02T11:16:57.495Z,99080.61
2019-02-02T11:19:23.521Z,99082.73
2019-02-02T11:21:49.749Z,99082.09
2019-02-02T11:24:18.879Z,99086.70
2019-02-02T11:26:43.786Z,99095.75
2019-02-02T11:29:09.892Z,99094.59
2019-02-02T11:31:35.946Z,99101.97
2019-02-02T11:34:01.949Z,99108.38
2019-02-02T11:36:27.930Z,99111.47
2019-02-02T11:38:54.041Z,99110.48
2019-02-02T11:41:20.029Z,99115.55
2019-02-02T11:43:46.066Z,99118.86
2019-02-02T11:46:12.103Z,99121.33
2019-02-02T11:48:38.107Z,99130.70
2019-02-02T11:51:04.153Z,99134.34
2019-02-02T11:53:30.266Z,99139.77
2019-02-02T11:55:56.305Z,99150.64
2019-02-02T11:58:22.305Z,99153.43
2019-02-02T12:00:48.276Z,99159.20
2019-02-02T12:03:14.273Z,99164.97
2019-02-02T12:05:40.291Z,99160.01
2019-02-02T12:08:06.399Z,99162.33
2019-02-02T12:10:32.458Z,99159.36
2019-02-02T12:12:58.546Z,99161.02
2019-02-02T12:15:24.544Z,99161.83
2019-02-02T12:17:50.606Z,99169.22
2019-02-02T12:20:16.619Z,99178.27
2019-02-02T12:22:42.640Z,99180.25
2019-02-02T12:25:08.654Z,99182.07
2019-02-02T12:27:34.708Z,99183.20
2019-02-02T12:30:00.753Z,99187.64
2019-02-02T12:32:27.091Z,99187.84
2019-02-02T12:34:53.296Z,99193.58
2019-02-02T12:37:19.514Z,99195.38
2019-02-02T12:39:45.561Z,99205.23
2019-02-02T12:42:11.567Z,99217.55
2019-02-02T12:44:37.610Z,99214.11
2019-02-02T12:47:03.594Z,99220.19
2019-02-02T12:49:29.599Z,99222.82
2019-02-02T12:51:55.629Z,99223.83
2019-02-02T12:54:21.618Z,99222.00
2019-02-02T12:56:47.605Z,99222.82
2019-02-02T12:59:13.716Z,99227.92
2019-02-02T13:01:39.753Z,99224.78
2019-02-02T13:04:05.986Z,99222.34
2019-02-02T13:06:32.012Z,99221.03
2019-02-02T13:08:58.028Z,99221.34
2019-02-02T13:11:24.130Z,99219.21
2019-02-02T13:13:50.298Z,99219.21
2019-02-02T13:16:16.297Z,99229.73
2019-02-02T13:18:42.365Z,99229.58
2019-02-02T13:21:09.403Z,99235.66
2019-02-02T13:23:35.364Z,99244.52
2019-02-02T13:26:05.677Z,99247.03
2019-02-02T13:28:29.208Z,99246.34
2019-02-02T13:30:55.207Z,99244.45
2019-02-02T13:33:21.205Z,99251.23
2019-02-02T13:35:47.337Z,99247.29
2019-02-02T13:38:13.410Z,99252.89
2019-02-02T13:40:39.457Z,99259.28
2019-02-02T13:43:05.430Z,99263.58
2019-02-02T13:45:31.445Z,99266.72
2019-02-02T13:47:57.444Z,99273.61
2019-02-02T13:50:23.487Z,99277.39
2019-02-02T13:52:49.533Z,99282.66
2019-02-02T13:55:15.537Z,99276.58
2019-02-02T13:57:41.542Z,99280.52
2019-02-02T14:00:07.711Z,99282.16
2019-02-02T14:02:33.750Z,99291.86
2019-02-02T14:04:59.728Z,99300.41
2019-02-02T14:07:25.716Z,99302.55
2019-02-02T14:09:51.729Z,99299.44
2019-02-02T14:12:17.735Z,99301.57
2019-02-02T14:14:43.760Z,99309.97
2019-02-02T14:17:09.783Z,99316.70
2019-02-02T14:19:35.764Z,99323.59
2019-02-02T14:22:01.749Z,99329.20
2019-02-02T14:24:27.823Z,99330.01
2019-02-02T14:26:53.825Z,99338.91
2019-02-02T14:29:19.815Z,99345.30
2019-02-02T14:31:45.801Z,99351.88
2019-02-02T14:34:11.801Z,99357.80
2019-02-02T14:36:37.820Z,99358.14
2019-02-02T14:39:03.888Z,99363.22
2019-02-02T14:41:29.913Z,99364.53
2019-02-02T14:43:56.032Z,99365.03
2019-02-02T14:46:22.090Z,99367.85
2019-02-02T14:48:48.227Z,99364.72
2019-02-02T14:51:14.216Z,99369.79
2019-02-02T14:53:40.398Z,99373.69
2019-02-02T14:56:06.383Z,99378.19
2019-02-02T14:58:32.363Z,99381.16
2019-02-02T15:00:58.455Z,99388.59
2019-02-02T15:03:26.181Z,99391.22
2019-02-02T15:05:52.456Z,99397.48
2019-02-02T15:08:18.576Z,99404.53
2019-02-02T15:10:44.565Z,99406.81
2019-02-02T15:13:10.583Z,99409.95
2019-02-02T15:15:36.579Z,99417.69
2019-02-02T15:18:02.574Z,99426.55
2019-02-02T15:20:28.610Z,99428.52
2019-02-02T15:22:54.631Z,99427.86
2019-02-02T15:25:20.682Z,99432.81
2019-02-02T15:27:46.705Z,99431.97
2019-02-02T15:30:12.704Z,99430.81
2019-02-02T15:32:41.505Z,99439.05
2019-02-02T15:35:07.538Z,99440.37
2019-02-02T15:37:33.548Z,99444.47
2019-02-02T15:39:59.582Z,99449.08
2019-02-02T15:42:25.636Z,99456.00
2019-02-02T15:44:51.630Z,99465.36
2019-02-02T15:47:17.607Z,99468.49
2019-02-02T15:49:43.677Z,99477.20
2019-02-02T15:52:09.665Z,99489.55
2019-02-02T15:54:35.689Z,99490.52
2019-02-02T15:57:01.682Z,99502.53
2019-02-02T15:59:27.698Z,99503.17
2019-02-02T16:01:53.776Z,99505.14
2019-02-02T16:04:19.780Z,99516.98
2019-02-02T16:06:45.834Z,99512.72
2019-02-02T16:09:11.860Z,99517.17
2019-02-02T16:11:37.899Z,99517.98
2019-02-02T16:14:03.872Z,99527.20
2019-02-02T16:16:29.894Z,99534.09
2019-02-02T16:18:56.066Z,99536.91
2019-02-02T16:21:22.102Z,99541.52
2019-02-02T16:23:48.200Z,99543.45
2019-02-02T16:26:14.219Z,99542.48
2019-02-02T16:28:41.197Z,99560.09
2019-02-02T16:31:07.193Z,99559.43
2019-02-02T16:33:33.177Z,99567.14
2019-02-02T16:35:59.218Z,99568.80
2019-02-02T16:38:25.233Z,99581.47
2019-02-02T16:40:51.223Z,99588.69
2019-02-02T16:43:17.227Z,99596.59
2019-02-02T16:45:43.264Z,99606.45
2019-02-02T16:48:09.256Z,99623.73
2019-02-02T16:50:35.306Z,99625.37
2019-02-02T16:53:01.305Z,99636.39
2019-02-02T16:55:27.294Z,99649.40
2019-02-02T16:57:53.309Z,99653.15
2019-02-02T17:00:19.451Z,99658.59
2019-02-02T17:02:45.530Z,99664.67
2019-02-02T17:05:11.629Z,99666.30
2019-02-02T17:07:37.630Z,99668.62
2019-02-02T17:10:03.609Z,99667.30
2019-02-02T17:12:29.615Z,99666.80
2019-02-02T17:14:55.896Z,99674.03
2019-02-02T17:17:22.047Z,99674.70
2019-02-02T17:19:48.106Z,99680.44
2019-02-02T17:22:14.120Z,99682.92
2019-02-02T17:24:40.128Z,99692.12
2019-02-02T17:27:06.111Z,99696.58
2019-02-02T17:29:32.153Z,99702.34
2019-02-02T17:31:58.178Z,99713.67
2019-02-02T17:34:27.373Z,99716.63
2019-02-02T17:36:51.974Z,99720.75
2019-02-02T17:39:18.773Z,99724.20
2019-02-02T17:41:44.830Z,99733.23
2019-02-02T17:44:10.801Z,99733.73
2019-02-02T17:46:36.787Z,99743.12
2019-02-02T17:49:02.788Z,99743.77
2019-02-02T17:51:28.873Z,99748.20
2019-02-02T17:53:54.869Z,99754.45
2019-02-02T17:56:20.902Z,99762.50
2019-02-02T17:58:47.095Z,99766.45
2019-02-02T18:01:13.140Z,99775.51
2019-02-02T18:03:39.243Z,99781.73
2019-02-02T18:06:05.253Z,99783.85
2019-02-02T18:08:31.253Z,99785.92
2019-02-02T18:10:57.385Z,99797.17
2019-02-02T18:13:23.480Z,99805.11
2019-02-02T18:15:49.461Z,99800.85
2019-02-02T18:18:15.466Z,99805.06
2019-02-02T18:20:41.478Z,99811.33
2019-02-02T18:23:08.152Z,99815.09
2019-02-02T18:25:34.192Z,99816.23
2019-02-02T18:28:00.177Z,99817.05
2019-02-02T18:30:26.271Z,99821.14
2019-02-02T18:32:52.278Z,99819.83
2019-02-02T18:35:18.327Z,99829.39
2019-02-02T18:37:44.341Z,99829.03
2019-02-02T18:40:10.386Z,99834.97
2019-02-02T18:42:36.381Z,99837.28
2019-02-02T18:45:02.442Z,99842.86
2019-02-02T18:47:28.568Z,99843.36
2019-02-02T18:49:54.618Z,99857.83
2019-02-02T18:52:20.645Z,99859.33
2019-02-02T18:54:46.649Z,99859.00
2019-02-02T18:57:12.638Z,99863.91
2019-02-02T18:59:39.463Z,99870.48
2019-02-02T19:02:05.552Z,99872.63
2019-02-02T19:04:31.569Z,99877.56
2019-02-02T19:06:57.653Z,99881.19
2019-02-02T19:09:23.689Z,99887.09
2019-02-02T19:11:49.772Z,99897.61
2019-02-02T19:14:15.794Z,99899.56
2019-02-02T19:16:41.778Z,99907.95
2019-02-02T19:19:07.871Z,99913.21
2019-02-02T19:21:33.845Z,99919.44
2019-02-02T19:23:59.841Z,99917.45
2019-02-02T19:26:25.834Z,99920.25
2019-02-02T19:28:51.940Z,99925.34
2019-02-02T19:31:17.978Z,99928.96
2019-02-02T19:33:44.054Z,99932.45
2019-02-02T19:36:10.079Z,99943.83
2019-02-02T19:38:36.099Z,99947.77
2019-02-02T19:41:02.155Z,99950.05
2019-02-02T19:43:28.188Z,99955.53
2019-02-02T19:45:54.182Z,99960.30
2019-02-02T19:48:20.183Z,99963.92
2019-02-02T19:50:46.164Z,99972.77
2019-02-02T19:53:12.228Z,99970.31
2019-02-02T19:55:38.348Z,99975.41
2019-02-02T19:58:04.337Z,99980.53
2019-02-02T20:00:30.392Z,99991.19
2019-02-02T20:02:56.388Z,99998.62
2019-02-02T20:05:28.779Z,100008.16
2019-02-02T20:07:50.131Z,100008.65
2019-02-02T20:10:16.149Z,100017.04
2019-02-02T20:12:42.240Z,100023.75
2019-02-02T20:15:08.232Z,100027.39
2019-02-02T20:17:34.244Z,100034.46
2019-02-02T20:20:00.502Z,100036.59
2019-02-02T20:22:26.524Z,100045.48
2019-02-02T20:24:52.517Z,100052.06
2019-02-02T20:27:18.503Z,100053.19
2019-02-02T20:29:44.519Z,100061.91
2019-02-02T20:32:10.742Z,100068.63
2019-02-02T20:34:36.894Z,100069.10
2019-02-02T20:37:02.913Z,100078.94
2019-02-02T20:39:28.986Z,100085.52
2019-02-02T20:41:55.459Z,100097.69
2019-02-02T20:44:21.514Z,100091.91
2019-02-02T20:46:47.497Z,100103.88
2019-02-02T20:49:13.546Z,100105.20
2019-02-02T20:51:39.612Z,100120.48
2019-02-02T20:54:05.773Z,100123.94
2019-02-02T20:56:31.890Z,100123.75
2019-02-02T20:58:58.259Z,100135.76
2019-02-02T21:01:24.363Z,100140.20
2019-02-02T21:03:50.438Z,100148.55
2019-02-02T21:06:17.615Z,100159.56
2019-02-02T21:08:43.677Z,100157.10
2019-02-02T21:11:09.721Z,100170.52
2019-02-02T21:13:35.727Z,100179.23
2019-02-02T21:16:01.848Z,100174.47
2019-02-02T21:18:27.840Z,100176.41
2019-02-02T21:20:53.821Z,100178.22
2019-02-02T21:23:19.812Z,100182.66
2019-02-02T21:25:45.824Z,100193.18
2019-02-02T21:28:12.057Z,100200.25
2019-02-02T21:30:38.076Z,100206.63
2019-02-02T21:33:04.479Z,100208.91
2019-02-02T21:35:30.543Z,100211.53
2019-02-02T21:37:56.664Z,100217.78
2019-02-02T21:40:22.804Z,100219.23
2019-02-02T21:42:48.928Z,100224.98
2019-02-02T21:45:14.927Z,100222.84
2019-02-02T21:47:40.926Z,100235.80
2019-02-02T21:50:07.405Z,100240.70
2019-02-02T21:52:33.431Z,100240.04
2019-02-02T21:54:59.471Z,100239.55
2019-02-02T21:57:26.628Z,100244.11
2019-02-02T21:59:52.626Z,100247.50
2019-02-02T22:02:19.640Z,100250.30
2019-02-02T22:04:45.736Z,100258.91
2019-02-02T22:07:12.136Z,100256.08
2019-02-02T22:09:38.222Z,100260.02
2019-02-02T22:12:04.287Z,100267.72
2019-02-02T22:14:30.357Z,100272.28
2019-02-02T22:16:56.428Z,100278.98
2019-02-02T22:19:22.468Z,100280.44
2019-02-02T22:21:48.539Z,100285.69
2019-02-02T22:24:14.828Z,100292.42
2019-02-02T22:26:40.988Z,100297.48
2019-02-02T22:29:07.036Z,100305.37
2019-02-02T22:31:33.047Z,100312.07
2019-02-02T22:33:59.041Z,100318.64
2019-02-02T22:36:27.416Z,100327.98
2019-02-02T22:38:52.897Z,100336.84
2019-02-02T22:41:19.522Z,100341.28
2019-02-02T22:43:45.615Z,100348.31
2019-02-02T22:46:11.713Z,100361.95
2019-02-02T22:48:37.776Z,100366.05
2019-02-02T22:51:03.851Z,100371.44
2019-02-02T22:53:29.917Z,100383.59
2019-02-02T22:55:56.008Z,100389.50
2019-02-02T22:58:22.458Z,100398.00
2019-02-02T23:00:48.487Z,100398.13
2019-02-02T23:03:14.513Z,100401.59
2019-02-02T23:05:40.575Z,100398.62
2019-02-02T23:08:06.649Z,100407.34
2019-02-02T23:10:32.642Z,100415.02
2019-02-02T23:12:58.647Z,100420.27
2019-02-02T23:15:25.130Z,100428.03
2019-02-02T23:17:51.180Z,100439.98
2019-02-02T23:20:17.159Z,100438.59
2019-02-02T23:22:43.290Z,100444.20
2019-02-02T23:25:09.287Z,100440.11
2019-02-02T23:27:35.271Z,100446.34
2019-02-02T23:30:01.275Z,100451.73
2019-02-02T23:32:27.679Z,100445.80
2019-02-02T23:34:53.672Z,100450.08
2019-02-02T23:37:19.694Z,100452.01
2019-02-02T23:39:45.749Z,100453.45
2019-02-02T23:42:11.815Z,100452.62
2019-02-02T23:44:37.787Z,100458.24
2019-02-02T23:47:03.817Z,100462.52
2019-02-02T23:49:29.861Z,100466.74
2019-02-02T23:51:55.861Z,100472.82
2019-02-02T23:54:21.904Z,100477.25
2019-02-02T23:56:47.894Z,100476.89
2019-02-02T23:59:14.052Z,100476.55
